createdAt,value
2019-05-19T00:01:29.158Z,39
2019-05-19T00:11:27.670Z,39
2019-05-19T00:21:28.408Z,39
2019-05-19T00:31:28.541Z,41
2019-05-19T00:41:29.032Z,40
2019-05-19T00:51:26.573Z,39
2019-05-19T01:01:27.468Z,42
2019-05-19T01:11:28.425Z,42
2019-05-19T01:21:29.313Z,40
2019-05-19T01:31:29.135Z,39
2019-05-19T01:41:28.987Z,40
2019-05-19T01:51:27.567Z,40
2019-05-19T02:01:28.700Z,41
2019-05-19T02:11:30.988Z,40
2019-05-19T02:21:27.760Z,40
2019-05-19T02:31:29.476Z,40
2019-05-19T02:41:27.704Z,41
2019-05-19T02:51:27.599Z,40
2019-05-19T03:01:28.203Z,43
2019-05-19T03:11:27.705Z,43
2019-05-19T03:21:27.554Z,43
2019-05-19T03:31:28.725Z,41
2019-05-19T03:41:27.843Z,41
2019-05-19T03:52:38.519Z,41
2019-05-19T04:01:28.010Z,43
2019-05-19T04:11:28.629Z,42
2019-05-19T04:21:28.406Z,41
2019-05-19T04:31:27.719Z,43
2019-05-19T04:41:28.372Z,41
2019-05-19T04:51:34.504Z,40
2019-05-19T05:01:30.519Z,41
2019-05-19T05:11:28.990Z,40
2019-05-19T05:21:31.126Z,39
2019-05-19T05:31:27.863Z,39
2019-05-19T05:41:27.609Z,43
2019-05-19T05:51:28.268Z,43
2019-05-19T06:01:26.896Z,42
2019-05-19T06:11:27.803Z,42
2019-05-19T06:21:28.879Z,40
2019-05-19T06:31:30.145Z,40
2019-05-19T06:41:28.170Z,43
2019-05-19T06:51:28.282Z,41
2019-05-19T07:01:26.922Z,43
2019-05-19T07:11:26.613Z,42
2019-05-19T07:21:29.207Z,40
2019-05-19T07:31:26.759Z,40
2019-05-19T07:41:27.745Z,42
2019-05-19T07:51:27.675Z,40
2019-05-19T08:01:28.422Z,39
2019-05-19T08:11:29.066Z,40
2019-05-19T08:21:27.282Z,40
2019-05-19T08:31:27.054Z,42
2019-05-19T08:41:28.376Z,40
2019-05-19T08:51:27.125Z,40
2019-05-19T09:01:26.886Z,42
2019-05-19T09:11:26.699Z,42
2019-05-19T09:21:26.988Z,42
2019-05-19T09:31:26.940Z,40
2019-05-19T09:41:27.178Z,42
2019-05-19T09:51:28.501Z,39
2019-05-19T10:01:27.791Z,40
2019-05-19T10:11:28.218Z,39
2019-05-19T10:21:27.375Z,41
2019-05-19T10:31:28.211Z,42
2019-05-19T10:41:27.556Z,39
2019-05-19T10:51:28.188Z,39
2019-05-19T11:01:27.709Z,39
2019-05-19T11:11:29.066Z,39
2019-05-19T11:21:27.359Z,42
2019-05-19T11:31:27.607Z,42
2019-05-19T11:41:28.282Z,40
2019-05-19T11:51:26.949Z,42
2019-05-19T12:01:29.731Z,38
2019-05-19T12:11:28.219Z,40
2019-05-19T12:21:27.851Z,41
2019-05-19T12:31:27.814Z,40
2019-05-19T12:41:29.297Z,40
2019-05-19T12:51:29.083Z,38
2019-05-19T13:01:27.484Z,42
2019-05-19T13:11:27.281Z,40
2019-05-19T13:21:27.456Z,42
2019-05-19T13:31:28.875Z,42
2019-05-19T13:41:27.800Z,40
2019-05-19T13:51:27.538Z,42
2019-05-19T14:01:30.692Z,42
2019-05-19T14:11:42.750Z,39
2019-05-19T14:21:27.072Z,41
2019-05-19T14:31:30.274Z,37
2019-05-19T14:41:35.386Z,40
2019-05-19T14:51:27.755Z,39
2019-05-19T15:01:29.482Z,37
2019-05-19T15:11:46.692Z,37
2019-05-19T15:21:27.140Z,40
2019-05-19T15:31:56.181Z,38
2019-05-19T15:41:27.462Z,38
2019-05-19T15:51:38.759Z,41
2019-05-19T16:01:28.856Z,41
2019-05-19T16:11:26.574Z,40
2019-05-19T16:21:27.873Z,41
2019-05-19T16:31:27.773Z,42
2019-05-19T16:41:27.667Z,42
2019-05-19T16:51:28.409Z,42
2019-05-19T17:01:27.739Z,38
2019-05-19T17:11:28.060Z,39
2019-05-19T17:21:27.029Z,38
2019-05-19T17:31:28.979Z,38
2019-05-19T17:41:27.927Z,38
2019-05-19T17:51:28.632Z,38
2019-05-19T18:01:27.999Z,39
2019-05-19T18:11:32.257Z,39
2019-05-19T18:21:27.073Z,43
2019-05-19T18:31:26.763Z,42
2019-05-19T18:41:27.882Z,42
2019-05-19T18:51:30.333Z,39
2019-05-19T19:01:28.105Z,39
2019-05-19T19:11:27.482Z,42
2019-05-19T19:21:27.913Z,41
2019-05-19T19:31:26.915Z,43
2019-05-19T19:41:27.099Z,41
2019-05-19T19:51:27.022Z,43
2019-05-19T20:01:28.497Z,41
2019-05-19T20:11:27.689Z,41
2019-05-19T20:21:27.848Z,44
2019-05-19T20:31:27.813Z,45
2019-05-19T20:41:27.454Z,41
2019-05-19T20:51:29.643Z,41
2019-05-19T21:01:27.715Z,43
2019-05-19T21:11:27.567Z,44
2019-05-19T21:21:28.766Z,44
2019-05-19T21:31:28.765Z,45
2019-05-19T21:41:27.676Z,45
2019-05-19T21:51:28.526Z,42
2019-05-19T22:01:27.817Z,44
2019-05-19T22:11:28.325Z,46
2019-05-19T22:21:28.687Z,46
2019-05-19T22:31:38.580Z,45
2019-05-19T22:41:28.700Z,44
2019-05-19T22:51:27.584Z,44
2019-05-19T23:01:27.262Z,44
2019-05-19T23:11:29.792Z,47
2019-05-19T23:21:27.877Z,45
2019-05-19T23:31:31.456Z,44
2019-05-19T23:41:29.340Z,44
2019-05-19T23:51:28.557Z,47
